createdAt,value
2022-11-24T00:04:00.457Z,86.50
2022-11-24T00:08:59.304Z,76.90
2022-11-24T00:13:58.507Z,91.80
2022-11-24T00:18:59.502Z,87.10
2022-11-24T00:23:57.649Z,104.40
2022-11-24T00:28:58.161Z,122.43
2022-11-24T00:33:57.894Z,158.30
2022-11-24T00:38:58.419Z,165.67
2022-11-24T00:43:57.703Z,180.80
2022-11-24T00:48:56.122Z,176.37
2022-11-24T00:53:54.290Z,171.77
2022-11-24T00:58:54.275Z,160.70
2022-11-24T01:03:52.783Z,243.47
2022-11-24T01:08:51.384Z,138.87
2022-11-24T01:13:51.127Z,205.23
2022-11-24T01:18:50.817Z,227.10
2022-11-24T01:23:48.939Z,144.10
2022-11-24T01:28:47.805Z,199.43
2022-11-24T01:33:46.126Z,152.03
2022-11-24T01:38:45.628Z,101.43
2022-11-24T01:43:44.524Z,122.60
2022-11-24T01:48:45.220Z,100.80
2022-11-24T01:53:50.192Z,104.10
2022-11-24T01:58:50.135Z,115.83
2022-11-24T02:03:49.833Z,77.20
2022-11-24T02:08:56.282Z,102.47
2022-11-24T02:13:56.197Z,109.77
2022-11-24T02:18:54.769Z,102.30
2022-11-24T02:24:03.622Z,135.13
2022-11-24T02:29:03.984Z,142.43
2022-11-24T02:34:02.085Z,149.77
2022-11-24T02:39:00.185Z,139.10
2022-11-24T02:44:02.711Z,158.57
2022-11-24T02:49:02.176Z,95.50
2022-11-24T02:54:00.265Z,136.07
2022-11-24T02:58:58.338Z,148.27
2022-11-24T03:03:56.439Z,118.87
2022-11-24T03:08:55.938Z,99.27
2022-11-24T03:13:54.075Z,126.37
2022-11-24T03:18:52.394Z,126.43
2022-11-24T03:23:50.515Z,114.80
2022-11-24T03:28:50.371Z,129.90
2022-11-24T03:33:48.443Z,129.17
2022-11-24T03:38:46.881Z,94.07
2022-11-24T03:43:44.994Z,143.87
2022-11-24T03:48:44.740Z,125.90
2022-11-24T03:53:42.891Z,102.20
2022-11-24T03:58:41.056Z,89.63
2022-11-24T04:03:39.128Z,104.53
2022-11-24T04:08:38.655Z,95.27
2022-11-24T04:13:36.788Z,110.37
2022-11-24T04:18:34.879Z,99.97
2022-11-24T04:23:33.062Z,130.77
2022-11-24T04:28:32.565Z,108.67
2022-11-24T04:33:30.690Z,140.47
2022-11-24T04:39:19.652Z,111.43
2022-11-24T04:43:50.431Z,115.53
2022-11-24T04:48:48.528Z,101.10
2022-11-24T04:53:46.632Z,95.87
2022-11-24T04:58:44.745Z,73.40
2022-11-24T05:03:44.382Z,91.97
2022-11-24T05:08:42.470Z,141.67
2022-11-24T05:13:40.547Z,148.40
2022-11-24T05:18:38.897Z,77.47
2022-11-24T05:23:38.541Z,114.63
2022-11-24T05:28:36.569Z,114.17
2022-11-24T05:33:34.922Z,94.27
2022-11-24T05:38:33.284Z,114.43
2022-11-24T05:43:33.067Z,111.73
2022-11-24T05:48:31.093Z,145.20
2022-11-24T05:53:29.124Z,169.40
2022-11-24T05:58:27.760Z,142.73
2022-11-24T06:03:27.150Z,97.90
2022-11-24T06:08:29.667Z,64.50
2022-11-24T06:13:29.207Z,74.67
2022-11-24T06:18:28.821Z,81.37
2022-11-24T06:23:26.879Z,55.43
2022-11-24T06:28:24.918Z,90.43
2022-11-24T06:33:22.958Z,91.40
2022-11-24T06:38:24.386Z,129.87
2022-11-24T06:43:23.253Z,84.90
2022-11-24T06:48:21.294Z,84.97
2022-11-24T06:53:19.416Z,84.17
2022-11-24T06:58:18.781Z,60.07
2022-11-24T07:03:19.418Z,68.37
2022-11-24T07:08:18.072Z,81.60
2022-11-24T07:13:16.258Z,52.43
2022-11-24T07:18:15.688Z,65.87
2022-11-24T07:23:13.688Z,60.60
2022-11-24T07:28:11.815Z,58.20
2022-11-24T07:33:10.106Z,47.10
2022-11-24T07:38:09.492Z,49.20
2022-11-24T07:43:07.524Z,46.23
2022-11-24T07:48:06.995Z,44.97
2022-11-24T07:53:05.588Z,45.83
2022-11-24T07:58:05.016Z,51.53
2022-11-24T08:03:03.093Z,55.90
2022-11-24T08:08:01.744Z,46.90
2022-11-24T08:13:01.745Z,48.83
2022-11-24T08:18:03.758Z,47.67
2022-11-24T08:23:02.209Z,42.40
2022-11-24T08:28:00.451Z,51.33
2022-11-24T08:33:00.100Z,47.17
2022-11-24T08:38:04.549Z,45.33
2022-11-24T08:43:03.355Z,47.10
2022-11-24T08:48:01.412Z,43.13
2022-11-24T08:53:01.296Z,39.10
2022-11-24T08:57:59.299Z,39.20
2022-11-24T09:02:58.870Z,42.23
2022-11-24T09:07:56.983Z,38.27
2022-11-24T09:12:56.518Z,37.50
2022-11-24T09:17:54.534Z,36.20
2022-11-24T09:22:52.593Z,39.23
2022-11-24T09:27:50.775Z,41.47
2022-11-24T09:32:50.167Z,42.23
2022-11-24T09:37:49.044Z,42.80
2022-11-24T09:42:59.236Z,38.07
2022-11-24T09:48:03.667Z,42.03
2022-11-24T09:53:09.176Z,35.83
2022-11-24T09:58:32.148Z,42.67
2022-11-24T10:03:37.641Z,42.77
2022-11-24T10:08:47.777Z,42.33
2022-11-24T10:14:22.550Z,37.93
2022-11-24T10:19:37.684Z,33.30
2022-11-24T10:24:59.852Z,41.97
2022-11-24T10:29:58.691Z,41.47
2022-11-24T10:35:01.620Z,38.27
2022-11-24T10:40:04.790Z,36.10
2022-11-24T10:45:10.213Z,36.07
2022-11-24T10:50:22.748Z,40.43
2022-11-24T10:55:21.769Z,36.17
2022-11-24T11:00:36.742Z,37.43
2022-11-24T11:05:42.207Z,41.10
2022-11-24T11:10:40.583Z,42.00
2022-11-24T11:15:38.977Z,47.20
2022-11-24T11:20:38.553Z,36.10
2022-11-24T11:25:38.161Z,40.43
2022-11-24T11:35:56.222Z,45.90
2022-11-24T11:40:54.649Z,38.57
2022-11-24T11:46:01.926Z,41.73
2022-11-24T11:51:22.801Z,34.33
2022-11-24T11:56:25.370Z,41.07
2022-11-24T12:01:52.714Z,39.70
2022-11-24T12:07:01.170Z,46.27
2022-11-24T12:12:26.835Z,34.47
2022-11-24T12:17:33.815Z,41.53
2022-11-24T12:22:42.798Z,36.67
2022-11-24T12:27:47.175Z,36.63
2022-11-24T12:33:10.513Z,35.67
2022-11-24T12:38:29.053Z,37.90
2022-11-24T12:43:34.519Z,37.00
2022-11-24T12:48:48.669Z,55.80
2022-11-24T12:53:50.452Z,37.73
2022-11-24T12:58:53.119Z,36.77
2022-11-24T13:04:03.739Z,37.77
2022-11-24T13:09:09.089Z,37.47
2022-11-24T13:14:12.568Z,38.97
2022-11-24T13:19:15.092Z,42.73
2022-11-24T13:24:27.553Z,36.90
2022-11-24T13:29:34.458Z,33.80
2022-11-24T13:35:03.618Z,38.90
2022-11-24T13:40:23.947Z,37.23
2022-11-24T13:45:50.248Z,36.50
2022-11-24T13:51:15.560Z,37.43
2022-11-24T13:56:25.806Z,41.20
2022-11-24T14:01:25.579Z,35.53
2022-11-24T14:06:31.726Z,45.90
2022-11-24T14:11:31.164Z,39.00
2022-11-24T14:16:29.236Z,42.33
2022-11-24T14:21:31.025Z,35.73
2022-11-24T14:26:34.255Z,36.53
2022-11-24T14:31:32.363Z,37.20
2022-11-24T14:36:30.638Z,43.10
2022-11-24T14:41:29.050Z,41.63
2022-11-24T14:46:28.535Z,42.93
2022-11-24T14:51:29.136Z,38.80
2022-11-24T14:56:29.084Z,39.53
2022-11-24T15:01:34.860Z,44.43
2022-11-24T15:06:33.097Z,40.30
2022-11-24T15:11:32.057Z,44.43
2022-11-24T15:16:31.557Z,42.80
2022-11-24T15:21:34.027Z,44.63
2022-11-24T15:26:36.932Z,43.17
2022-11-24T15:31:43.319Z,42.30
2022-11-24T15:36:43.209Z,40.83
2022-11-24T15:41:42.161Z,45.57
2022-11-24T15:46:41.604Z,42.77
2022-11-24T15:51:43.658Z,43.30
2022-11-24T15:56:42.316Z,38.27
2022-11-24T16:01:42.570Z,40.53
2022-11-24T16:06:40.703Z,35.73
2022-11-24T16:11:38.746Z,39.50
2022-11-24T16:16:36.834Z,42.60
2022-11-24T16:21:36.434Z,39.63
2022-11-24T16:26:34.492Z,41.97
2022-11-24T16:31:32.777Z,38.53
2022-11-24T16:36:31.392Z,41.00
2022-11-24T16:41:30.762Z,42.70
2022-11-24T16:46:28.877Z,39.90
2022-11-24T16:51:33.011Z,47.97
2022-11-24T16:56:34.180Z,46.30
2022-11-24T17:01:32.850Z,47.53
2022-11-24T17:06:32.868Z,45.90
2022-11-24T17:11:31.140Z,45.40
2022-11-24T17:16:30.623Z,49.40
2022-11-24T17:21:29.305Z,48.83
2022-11-24T17:26:28.530Z,54.47
2022-11-24T17:31:28.846Z,49.23
2022-11-24T17:36:29.359Z,49.27
2022-11-24T17:41:27.690Z,53.27
2022-11-24T17:46:26.248Z,47.97
2022-11-24T17:51:26.348Z,44.77
2022-11-24T17:56:27.887Z,52.10
2022-11-24T18:01:28.435Z,47.77
2022-11-24T18:06:28.613Z,51.43
2022-11-24T18:11:31.768Z,49.73
2022-11-24T18:16:31.400Z,45.77
2022-11-24T18:21:29.679Z,55.17
2022-11-24T18:26:29.113Z,47.50
2022-11-24T18:31:27.245Z,46.17
2022-11-24T18:36:29.998Z,44.17
2022-11-24T18:41:29.956Z,44.17
2022-11-24T18:46:27.963Z,43.40
2022-11-24T18:51:27.080Z,40.40
2022-11-24T18:56:25.610Z,43.10
2022-11-24T19:01:26.958Z,45.83
2022-11-24T19:06:28.705Z,46.07
2022-11-24T19:11:28.463Z,50.73
2022-11-24T19:16:27.960Z,45.97
2022-11-24T19:21:26.086Z,51.17
2022-11-24T19:26:24.769Z,48.90
2022-11-24T19:31:22.845Z,51.43
2022-11-24T19:36:23.074Z,58.43
2022-11-24T19:41:22.539Z,57.83
2022-11-24T19:46:21.544Z,49.03
2022-11-24T19:51:23.170Z,50.77
2022-11-24T19:56:22.959Z,52.33
2022-11-24T20:01:22.553Z,56.33
2022-11-24T20:06:22.115Z,52.80
2022-11-24T20:11:21.882Z,50.17
2022-11-24T20:16:26.064Z,54.30
2022-11-24T20:21:28.822Z,51.47
2022-11-24T20:26:29.233Z,44.47
2022-11-24T20:31:29.873Z,49.40
2022-11-24T20:36:31.256Z,55.50
2022-11-24T20:41:31.585Z,59.23
2022-11-24T20:46:31.284Z,49.60
2022-11-24T20:51:32.681Z,41.37
2022-11-24T20:56:32.515Z,47.90
2022-11-24T21:01:34.759Z,56.30
2022-11-24T21:06:34.278Z,98.33
2022-11-24T21:11:33.102Z,192.10
2022-11-24T21:16:32.817Z,203.93
2022-11-24T21:21:34.190Z,120.47
2022-11-24T21:26:37.028Z,116.93
2022-11-24T21:31:37.139Z,163.53
2022-11-24T21:36:39.989Z,152.37
2022-11-24T21:41:40.835Z,206.40
2022-11-24T21:46:44.190Z,333.07
2022-11-24T21:51:46.001Z,261.23
2022-11-24T21:56:45.390Z,174.30
2022-11-24T22:01:43.465Z,170.40
2022-11-24T22:06:41.622Z,155.13
2022-11-24T22:11:39.667Z,138.33
2022-11-24T22:16:39.153Z,101.77
2022-11-24T22:21:37.498Z,90.13
2022-11-24T22:26:35.782Z,61.47
2022-11-24T22:31:34.080Z,54.40
2022-11-24T22:36:33.582Z,39.73
2022-11-24T22:41:32.530Z,40.17
2022-11-24T22:46:31.995Z,36.80
2022-11-24T22:51:31.245Z,36.77
2022-11-24T22:56:32.271Z,30.30
2022-11-24T23:01:31.759Z,34.60
2022-11-24T23:06:31.476Z,33.07
2022-11-24T23:11:37.411Z,28.80
2022-11-24T23:16:36.314Z,31.23
2022-11-24T23:21:36.066Z,29.93
2022-11-24T23:26:37.034Z,25.57
2022-11-24T23:31:35.478Z,25.80
2022-11-24T23:36:34.201Z,26.17
2022-11-24T23:41:32.593Z,29.20
2022-11-24T23:46:32.694Z,25.20
2022-11-24T23:51:31.897Z,30.87
2022-11-24T23:56:32.940Z,32.27
